createdAt,value
2024-03-27T00:00:32.166Z,68.77
2024-03-27T00:01:32.103Z,68.57
2024-03-27T00:02:32.098Z,68.67
2024-03-27T00:03:32.098Z,68.47
2024-03-27T00:04:32.077Z,68.47
2024-03-27T00:05:32.081Z,68.47
2024-03-27T00:06:32.090Z,68.37
2024-03-27T00:07:32.077Z,68.26
2024-03-27T00:08:32.077Z,68.26
2024-03-27T00:09:32.038Z,68.37
2024-03-27T00:10:32.915Z,68.26
2024-03-27T00:11:31.992Z,68.47
2024-03-27T00:12:32.004Z,68.67
2024-03-27T00:13:31.996Z,68.77
2024-03-27T00:14:31.959Z,68.57
2024-03-27T00:15:32.039Z,68.60
2024-03-27T00:16:31.945Z,68.60
2024-03-27T00:17:32.046Z,68.19
2024-03-27T00:18:31.969Z,68.30
2024-03-27T00:19:31.914Z,68.19
2024-03-27T00:20:31.904Z,68.37
2024-03-27T00:21:31.916Z,68.40
2024-03-27T00:22:31.900Z,68.40
2024-03-27T00:23:31.867Z,68.40
2024-03-27T00:24:31.899Z,68.40
2024-03-27T00:25:31.855Z,68.60
2024-03-27T00:26:31.874Z,68.50
2024-03-27T00:27:31.880Z,68.50
2024-03-27T00:28:31.884Z,68.50
2024-03-27T00:29:31.801Z,68.70
2024-03-27T00:30:31.796Z,68.50
2024-03-27T00:31:31.787Z,68.50
2024-03-27T00:32:31.773Z,68.60
2024-03-27T00:33:31.787Z,68.50
2024-03-27T00:34:31.755Z,68.40
2024-03-27T00:35:31.743Z,68.50
2024-03-27T00:36:31.744Z,68.40
2024-03-27T00:37:31.749Z,68.40
2024-03-27T00:38:31.722Z,68.40
2024-03-27T00:39:31.724Z,68.60
2024-03-27T00:40:31.701Z,68.60
2024-03-27T00:41:31.670Z,68.60
2024-03-27T00:42:31.680Z,68.70
2024-03-27T00:43:31.662Z,68.91
2024-03-27T00:44:31.675Z,68.70
2024-03-27T00:45:31.712Z,68.50
2024-03-27T00:46:31.664Z,68.50
2024-03-27T00:47:31.609Z,68.80
2024-03-27T00:48:31.613Z,68.70
2024-03-27T00:49:31.619Z,68.30
2024-03-27T00:50:31.599Z,68.19
2024-03-27T00:51:31.580Z,68.30
2024-03-27T00:52:31.559Z,68.50
2024-03-27T00:53:31.567Z,68.60
2024-03-27T00:54:31.541Z,68.50
2024-03-27T00:55:31.531Z,68.30
2024-03-27T00:56:31.519Z,68.40
2024-03-27T00:57:31.516Z,68.19
2024-03-27T00:58:31.496Z,68.30
2024-03-27T00:59:31.539Z,68.30
2024-03-27T01:00:31.506Z,68.30
2024-03-27T01:01:31.498Z,68.40
2024-03-27T01:02:31.442Z,68.19
2024-03-27T01:03:31.494Z,68.50
2024-03-27T01:04:31.470Z,68.40
2024-03-27T01:05:31.410Z,68.70
2024-03-27T01:06:31.428Z,68.30
2024-03-27T01:07:31.445Z,68.30
2024-03-27T01:08:31.377Z,68.60
2024-03-27T01:09:31.422Z,68.40
2024-03-27T01:10:31.352Z,68.40
2024-03-27T01:11:31.360Z,68.70
2024-03-27T01:12:31.349Z,68.50
2024-03-27T01:13:31.367Z,68.60
2024-03-27T01:14:31.324Z,68.60
2024-03-27T01:15:31.311Z,68.60
2024-03-27T01:16:31.285Z,68.91
2024-03-27T01:17:31.283Z,68.91
2024-03-27T01:18:31.339Z,68.91
2024-03-27T01:19:31.286Z,69.01
2024-03-27T01:20:31.282Z,69.01
2024-03-27T01:21:31.243Z,68.91
2024-03-27T01:22:31.243Z,68.70
2024-03-27T01:23:31.210Z,68.70
2024-03-27T01:24:31.268Z,68.80
2024-03-27T01:25:31.199Z,68.80
2024-03-27T01:26:31.182Z,68.91
2024-03-27T01:27:31.230Z,68.91
2024-03-27T01:28:31.168Z,68.91
2024-03-27T01:29:31.168Z,68.91
2024-03-27T01:30:31.145Z,68.91
2024-03-27T01:31:31.140Z,68.91
2024-03-27T01:32:31.113Z,68.91
2024-03-27T01:33:31.122Z,68.91
2024-03-27T01:34:31.096Z,69.01
2024-03-27T01:35:31.118Z,69.01
2024-03-27T01:36:31.132Z,69.32
2024-03-27T01:37:31.114Z,69.42
2024-03-27T01:38:31.054Z,69.42
2024-03-27T01:39:31.070Z,69.42
2024-03-27T01:40:31.053Z,69.45
2024-03-27T01:41:31.020Z,69.65
2024-03-27T01:42:31.023Z,69.65
2024-03-27T01:43:31.009Z,69.65
2024-03-27T01:44:30.974Z,69.56
2024-03-27T01:45:31.051Z,69.76
2024-03-27T01:46:30.973Z,69.65
2024-03-27T01:47:30.956Z,69.65
2024-03-27T01:48:30.944Z,69.56
2024-03-27T01:49:30.936Z,69.65
2024-03-27T01:50:30.967Z,69.56
2024-03-27T01:51:30.928Z,69.56
2024-03-27T01:52:30.896Z,69.65
2024-03-27T01:53:30.895Z,69.52
2024-03-27T01:54:30.907Z,69.56
2024-03-27T01:55:30.897Z,69.56
2024-03-27T01:56:30.894Z,69.56
2024-03-27T01:57:30.876Z,69.73
2024-03-27T01:58:30.823Z,69.76
2024-03-27T01:59:30.847Z,69.86
2024-03-27T02:00:30.912Z,69.86
2024-03-27T02:01:30.820Z,69.56
2024-03-27T02:02:30.795Z,69.65
2024-03-27T02:03:30.813Z,69.65
2024-03-27T02:04:30.762Z,69.56
2024-03-27T02:05:30.808Z,69.65
2024-03-27T02:06:30.786Z,69.76
2024-03-27T02:07:30.756Z,69.65
2024-03-27T02:08:30.735Z,69.65
2024-03-27T02:09:30.733Z,69.76
2024-03-27T02:10:30.715Z,70.06
2024-03-27T02:11:30.730Z,69.96
2024-03-27T02:12:30.720Z,70.17
2024-03-27T02:13:30.674Z,70.06
2024-03-27T02:14:30.667Z,70.17
2024-03-27T02:15:30.664Z,70.17
2024-03-27T02:16:30.626Z,70.06
2024-03-27T02:17:30.731Z,70.37
2024-03-27T02:18:30.666Z,70.47
2024-03-27T02:19:30.603Z,70.78
2024-03-27T02:20:30.603Z,70.68
2024-03-27T02:21:30.602Z,70.57
2024-03-27T02:22:30.569Z,70.68
2024-03-27T02:23:30.589Z,70.78
2024-03-27T02:24:30.567Z,71.09
2024-03-27T02:25:30.542Z,71.29
2024-03-27T02:26:30.528Z,71.19
2024-03-27T02:27:30.533Z,71.29
2024-03-27T02:28:30.539Z,71.29
2024-03-27T02:29:30.527Z,71.19
2024-03-27T02:30:30.499Z,71.29
2024-03-27T02:31:30.472Z,71.39
2024-03-27T02:32:30.460Z,71.19
2024-03-27T02:33:30.523Z,71.09
2024-03-27T02:34:30.455Z,71.09
2024-03-27T02:35:30.462Z,71.19
2024-03-27T02:36:30.428Z,71.50
2024-03-27T02:37:30.403Z,71.80
2024-03-27T02:38:30.403Z,72.00
2024-03-27T02:39:30.410Z,71.80
2024-03-27T02:40:30.398Z,72.00
2024-03-27T02:41:30.371Z,72.00
2024-03-27T02:42:30.371Z,71.80
2024-03-27T02:43:30.345Z,71.59
2024-03-27T02:44:30.326Z,71.80
2024-03-27T02:45:30.369Z,71.91
2024-03-27T02:46:30.361Z,71.80
2024-03-27T02:47:30.295Z,71.70
2024-03-27T02:48:30.418Z,72.11
2024-03-27T02:49:30.307Z,72.31
2024-03-27T02:50:30.307Z,72.31
2024-03-27T02:51:30.304Z,72.31
2024-03-27T02:52:30.324Z,72.52
2024-03-27T02:53:30.275Z,72.72
2024-03-27T02:54:30.340Z,72.72
2024-03-27T02:55:30.306Z,72.62
2024-03-27T02:56:30.248Z,72.52
2024-03-27T02:57:30.332Z,72.62
2024-03-27T02:58:30.182Z,72.82
2024-03-27T02:59:30.302Z,72.92
2024-03-27T03:00:30.227Z,72.72
2024-03-27T03:01:30.264Z,72.92
2024-03-27T03:02:30.213Z,73.03
2024-03-27T03:03:30.194Z,72.92
2024-03-27T03:04:30.302Z,72.82
2024-03-27T03:05:30.308Z,72.82
2024-03-27T03:06:30.214Z,73.23
2024-03-27T03:07:30.252Z,73.23
2024-03-27T03:08:30.072Z,73.23
2024-03-27T03:09:30.118Z,73.33
2024-03-27T03:10:30.076Z,73.54
2024-03-27T03:11:30.053Z,73.57
2024-03-27T03:12:30.123Z,73.54
2024-03-27T03:13:30.030Z,73.77
2024-03-27T03:14:30.044Z,73.98
2024-03-27T03:15:30.008Z,73.94
2024-03-27T03:16:30.000Z,74.18
2024-03-27T03:17:29.968Z,74.18
2024-03-27T03:18:30.021Z,74.25
2024-03-27T03:19:29.974Z,74.25
2024-03-27T03:20:29.970Z,74.46
2024-03-27T03:21:29.983Z,74.35
2024-03-27T03:22:29.972Z,74.35
2024-03-27T03:23:29.951Z,74.35
2024-03-27T03:24:29.915Z,74.25
2024-03-27T03:25:29.906Z,74.25
2024-03-27T03:26:29.889Z,74.46
2024-03-27T03:27:29.877Z,74.56
2024-03-27T03:28:29.864Z,74.56
2024-03-27T03:29:29.908Z,74.56
2024-03-27T03:30:29.846Z,74.66
2024-03-27T03:31:29.824Z,74.56
2024-03-27T03:32:29.835Z,74.76
2024-03-27T03:33:29.877Z,74.76
2024-03-27T03:34:29.822Z,74.76
2024-03-27T03:35:29.787Z,75.17
2024-03-27T03:36:29.787Z,75.48
2024-03-27T03:37:29.768Z,75.58
2024-03-27T03:38:29.751Z,75.68
2024-03-27T03:39:29.756Z,75.58
2024-03-27T03:40:29.785Z,75.58
2024-03-27T03:41:29.716Z,75.58
2024-03-27T03:42:29.808Z,75.68
2024-03-27T03:43:29.696Z,75.78
2024-03-27T03:44:29.716Z,75.78
2024-03-27T03:45:29.690Z,75.78
2024-03-27T03:46:29.676Z,75.99
2024-03-27T03:47:29.661Z,75.99
2024-03-27T03:48:29.652Z,76.19
2024-03-27T03:49:29.659Z,76.09
2024-03-27T03:50:29.626Z,76.09
2024-03-27T03:51:29.599Z,76.19
2024-03-27T03:52:29.631Z,76.19
2024-03-27T03:53:29.580Z,76.09
2024-03-27T03:54:29.604Z,76.19
2024-03-27T03:55:29.582Z,76.29
2024-03-27T03:56:29.569Z,76.40
2024-03-27T03:57:29.623Z,76.29
2024-03-27T03:58:29.546Z,76.19
2024-03-27T03:59:29.513Z,76.16
2024-03-27T04:00:29.521Z,76.19
2024-03-27T04:01:29.558Z,76.19
2024-03-27T04:02:29.491Z,76.29
2024-03-27T04:03:29.470Z,76.26
2024-03-27T04:04:29.457Z,76.26
2024-03-27T04:05:29.486Z,76.36
2024-03-27T04:06:29.460Z,76.40
2024-03-27T04:07:29.450Z,76.46
2024-03-27T04:08:29.470Z,76.67
2024-03-27T04:09:29.427Z,76.77
2024-03-27T04:10:29.415Z,76.77
2024-03-27T04:11:29.403Z,76.67
2024-03-27T04:12:29.416Z,76.67
2024-03-27T04:13:29.413Z,76.67
2024-03-27T04:14:29.365Z,76.67
2024-03-27T04:15:29.371Z,76.77
2024-03-27T04:16:29.383Z,76.97
2024-03-27T04:17:29.354Z,76.87
2024-03-27T04:18:29.339Z,76.87
2024-03-27T04:19:29.310Z,76.87
2024-03-27T04:20:29.323Z,76.77
2024-03-27T04:21:29.279Z,77.08
2024-03-27T04:22:29.283Z,76.97
2024-03-27T04:23:29.258Z,77.08
2024-03-27T04:24:29.263Z,77.18
2024-03-27T04:25:41.192Z,77.08
2024-03-27T04:26:29.249Z,76.97
2024-03-27T04:27:29.215Z,76.97
2024-03-27T04:28:29.202Z,77.18
2024-03-27T04:29:29.196Z,77.08
2024-03-27T04:30:29.197Z,77.18
2024-03-27T04:31:29.217Z,77.18
2024-03-27T04:32:29.155Z,77.38
2024-03-27T04:33:29.149Z,77.48
2024-03-27T04:34:29.198Z,77.69
2024-03-27T04:35:29.135Z,77.79
2024-03-27T04:36:29.135Z,77.79
2024-03-27T04:37:29.106Z,77.89
2024-03-27T04:38:29.101Z,78.03
2024-03-27T04:39:29.087Z,78.13
2024-03-27T04:40:29.091Z,78.13
2024-03-27T04:41:29.074Z,78.13
2024-03-27T04:42:29.059Z,78.13
2024-03-27T04:43:29.039Z,78.13
2024-03-27T04:44:29.048Z,78.34
2024-03-27T04:45:29.066Z,78.34
2024-03-27T04:46:29.054Z,78.34
2024-03-27T04:47:28.998Z,78.23
2024-03-27T04:48:28.986Z,78.34
2024-03-27T04:49:28.980Z,78.23
2024-03-27T04:50:28.977Z,78.13
2024-03-27T04:51:28.943Z,78.03
2024-03-27T04:52:28.967Z,78.03
2024-03-27T04:53:28.926Z,77.93
2024-03-27T04:54:28.958Z,77.72
2024-03-27T04:55:28.908Z,77.83
2024-03-27T04:56:28.895Z,77.52
2024-03-27T04:57:28.917Z,77.62
2024-03-27T04:58:28.869Z,77.72
2024-03-27T04:59:28.885Z,77.72
2024-03-27T05:00:28.904Z,77.52
2024-03-27T05:01:28.846Z,77.31
2024-03-27T05:02:28.843Z,77.42
2024-03-27T05:03:28.814Z,77.42
2024-03-27T05:04:28.838Z,77.31
2024-03-27T05:05:28.798Z,77.22
2024-03-27T05:06:28.788Z,77.31
2024-03-27T05:07:28.777Z,77.22
2024-03-27T05:08:28.784Z,77.11
2024-03-27T05:09:28.751Z,77.11
2024-03-27T05:10:28.765Z,77.01
2024-03-27T05:11:28.770Z,77.11
2024-03-27T05:12:28.733Z,77.11
2024-03-27T05:13:28.728Z,77.01
2024-03-27T05:14:28.704Z,76.90
2024-03-27T05:15:28.640Z,76.90
2024-03-27T05:16:28.681Z,76.81
2024-03-27T05:17:28.790Z,76.70
2024-03-27T05:18:28.619Z,76.70
2024-03-27T05:19:28.625Z,76.81
2024-03-27T05:20:28.582Z,76.70
2024-03-27T05:21:28.579Z,76.70
2024-03-27T05:22:28.560Z,76.50
2024-03-27T05:23:28.581Z,76.40
2024-03-27T05:24:28.552Z,76.19
2024-03-27T05:25:28.519Z,76.19
2024-03-27T05:26:28.512Z,76.19
2024-03-27T05:27:28.517Z,76.09
2024-03-27T05:28:28.513Z,76.19
2024-03-27T05:29:28.474Z,75.99
2024-03-27T05:30:28.485Z,75.99
2024-03-27T05:31:28.472Z,75.89
2024-03-27T05:32:28.474Z,76.09
2024-03-27T05:33:28.477Z,76.33
2024-03-27T05:34:28.449Z,76.19
2024-03-27T05:35:31.358Z,76.12
2024-03-27T05:36:28.426Z,76.12
2024-03-27T05:37:28.435Z,75.92
2024-03-27T05:38:28.436Z,75.62
2024-03-27T05:39:28.454Z,75.51
2024-03-27T05:40:28.360Z,75.51
2024-03-27T05:41:28.351Z,75.31
2024-03-27T05:42:28.366Z,75.31
2024-03-27T05:43:28.351Z,75.31
2024-03-27T05:44:28.332Z,75.21
2024-03-27T05:45:28.363Z,75.10
2024-03-27T05:46:28.308Z,75.10
2024-03-27T05:47:28.304Z,75.10
2024-03-27T05:48:28.283Z,75.10
2024-03-27T05:49:28.281Z,75.00
2024-03-27T05:50:28.291Z,75.00
2024-03-27T05:51:28.291Z,75.00
2024-03-27T05:52:28.231Z,74.90
2024-03-27T05:53:28.240Z,75.10
2024-03-27T05:54:28.217Z,75.10
2024-03-27T05:55:28.241Z,75.00
2024-03-27T05:56:28.204Z,74.80
2024-03-27T05:57:28.231Z,74.90
2024-03-27T05:58:28.170Z,74.80
2024-03-27T05:59:28.144Z,75.00
2024-03-27T06:00:28.190Z,75.00
2024-03-27T06:01:28.148Z,75.00
2024-03-27T06:02:28.176Z,75.10
2024-03-27T06:03:28.117Z,75.00
2024-03-27T06:04:28.130Z,74.90
2024-03-27T06:05:28.115Z,75.00
2024-03-27T06:06:28.113Z,75.00
2024-03-27T06:07:28.088Z,75.10
2024-03-27T06:08:28.095Z,75.10
2024-03-27T06:09:28.083Z,75.10
2024-03-27T06:10:28.050Z,75.10
2024-03-27T06:11:28.019Z,75.10
2024-03-27T06:12:28.023Z,75.00
2024-03-27T06:13:28.031Z,75.10
2024-03-27T06:14:27.997Z,75.10
2024-03-27T06:15:28.040Z,75.00
2024-03-27T06:16:27.988Z,75.00
2024-03-27T06:17:28.023Z,75.10
2024-03-27T06:18:27.960Z,75.31
2024-03-27T06:19:27.948Z,75.10
2024-03-27T06:20:27.937Z,75.41
2024-03-27T06:21:27.957Z,75.51
2024-03-27T06:22:27.907Z,75.31
2024-03-27T06:23:27.910Z,75.51
2024-03-27T06:24:27.901Z,75.51
2024-03-27T06:25:27.903Z,75.41
2024-03-27T06:26:27.872Z,75.31
2024-03-27T06:27:27.903Z,75.62
2024-03-27T06:28:27.849Z,75.82
2024-03-27T06:29:27.847Z,75.71
2024-03-27T06:30:27.831Z,75.62
2024-03-27T06:31:27.813Z,75.71
2024-03-27T06:32:27.817Z,75.82
2024-03-27T06:33:27.835Z,75.92
2024-03-27T06:34:27.786Z,75.71
2024-03-27T06:35:27.776Z,75.71
2024-03-27T06:36:27.768Z,75.62
2024-03-27T06:37:27.749Z,75.62
2024-03-27T06:38:27.743Z,75.62
2024-03-27T06:39:27.760Z,75.51
2024-03-27T06:40:27.738Z,75.62
2024-03-27T06:41:27.708Z,75.71
2024-03-27T06:42:27.710Z,75.82
2024-03-27T06:43:27.690Z,75.51
2024-03-27T06:44:27.691Z,75.62
2024-03-27T06:45:30.569Z,75.62
2024-03-27T06:46:27.680Z,75.71
2024-03-27T06:47:27.658Z,75.71
2024-03-27T06:48:27.637Z,75.71
2024-03-27T06:49:27.610Z,75.71
2024-03-27T06:50:27.605Z,75.62
2024-03-27T06:51:27.635Z,75.62
2024-03-27T06:52:27.607Z,75.51
2024-03-27T06:53:27.585Z,75.31
2024-03-27T06:54:27.606Z,75.51
2024-03-27T06:55:27.574Z,75.51
2024-03-27T06:56:27.548Z,75.51
2024-03-27T06:57:27.555Z,75.62
2024-03-27T06:58:27.532Z,75.62
2024-03-27T06:59:27.507Z,75.34
2024-03-27T07:00:27.504Z,75.41
2024-03-27T07:01:29.698Z,75.51
2024-03-27T07:02:27.505Z,75.62
2024-03-27T07:03:27.457Z,75.71
2024-03-27T07:04:27.466Z,76.03
2024-03-27T07:05:27.453Z,76.12
2024-03-27T07:06:27.443Z,76.23
2024-03-27T07:07:27.680Z,76.33
2024-03-27T07:08:27.405Z,76.74
2024-03-27T07:09:27.422Z,76.84
2024-03-27T07:10:27.392Z,77.35
2024-03-27T07:11:27.377Z,77.97
2024-03-27T07:12:27.896Z,77.97
2024-03-27T07:13:27.378Z,78.07
2024-03-27T07:14:27.354Z,77.80
2024-03-27T07:15:27.343Z,77.97
2024-03-27T07:16:27.333Z,78.68
2024-03-27T07:17:27.325Z,78.88
2024-03-27T07:18:27.322Z,78.99
2024-03-27T07:19:27.328Z,78.88
2024-03-27T07:20:27.289Z,78.68
2024-03-27T07:21:27.402Z,79.02
2024-03-27T07:22:27.267Z,78.88
2024-03-27T07:23:27.270Z,78.72
2024-03-27T07:24:27.275Z,78.72
2024-03-27T07:25:27.227Z,78.61
2024-03-27T07:26:29.718Z,78.72
2024-03-27T07:27:27.206Z,78.72
2024-03-27T07:28:27.210Z,78.92
2024-03-27T07:29:27.179Z,79.02
2024-03-27T07:30:27.195Z,79.13
2024-03-27T07:31:27.162Z,79.50
2024-03-27T07:32:27.170Z,79.64
2024-03-27T07:33:27.164Z,79.50
2024-03-27T07:34:27.147Z,79.50
2024-03-27T07:35:27.139Z,79.43
2024-03-27T07:36:27.113Z,79.84
2024-03-27T07:37:27.120Z,80.05
2024-03-27T07:38:27.117Z,80.25
2024-03-27T07:39:27.092Z,79.84
2024-03-27T07:40:27.100Z,79.60
2024-03-27T07:41:27.054Z,79.64
2024-03-27T07:42:27.072Z,79.64
2024-03-27T07:43:27.059Z,79.60
2024-03-27T07:44:27.058Z,79.70
2024-03-27T07:45:27.001Z,79.70
2024-03-27T07:46:27.008Z,80.01
2024-03-27T07:47:27.033Z,80.01
2024-03-27T07:48:26.983Z,79.80
2024-03-27T07:49:26.981Z,79.60
2024-03-27T07:50:26.963Z,79.50
2024-03-27T07:51:27.005Z,79.50
2024-03-27T07:52:26.941Z,79.80
2024-03-27T07:53:26.936Z,80.21
2024-03-27T07:54:26.931Z,80.32
2024-03-27T07:55:26.935Z,80.21
2024-03-27T07:56:26.914Z,80.21
2024-03-27T07:57:26.918Z,80.11
2024-03-27T07:58:26.884Z,80.32
2024-03-27T07:59:26.859Z,80.52
2024-03-27T08:00:26.857Z,80.52
2024-03-27T08:01:27.096Z,80.42
2024-03-27T08:02:26.859Z,80.28
2024-03-27T08:03:26.843Z,80.48
2024-03-27T08:04:26.803Z,80.48
2024-03-27T08:05:26.805Z,80.58
2024-03-27T08:06:26.788Z,80.58
2024-03-27T08:07:26.810Z,80.58
2024-03-27T08:08:26.768Z,80.69
2024-03-27T08:09:26.755Z,80.79
2024-03-27T08:10:26.750Z,80.58
2024-03-27T08:11:26.759Z,80.38
2024-03-27T08:12:26.737Z,79.97
2024-03-27T08:13:26.782Z,79.57
2024-03-27T08:14:26.705Z,79.36
2024-03-27T08:15:26.692Z,79.46
2024-03-27T08:16:26.679Z,79.66
2024-03-27T08:17:26.672Z,79.57
2024-03-27T08:18:27.388Z,79.46
2024-03-27T08:19:26.646Z,79.66
2024-03-27T08:20:26.655Z,79.66
2024-03-27T08:21:26.641Z,79.57
2024-03-27T08:22:26.614Z,79.77
2024-03-27T08:23:26.609Z,79.66
2024-03-27T08:24:26.626Z,79.97
2024-03-27T08:25:26.589Z,79.66
2024-03-27T08:26:26.563Z,79.66
2024-03-27T08:27:26.564Z,79.66
2024-03-27T08:28:26.546Z,79.77
2024-03-27T08:29:26.559Z,79.66
2024-03-27T08:30:26.556Z,79.66
2024-03-27T08:31:26.519Z,79.57
2024-03-27T08:32:26.508Z,79.46
2024-03-27T08:33:26.502Z,79.46
2024-03-27T08:34:27.924Z,79.36
2024-03-27T08:35:26.501Z,79.05
2024-03-27T08:36:34.024Z,79.36
2024-03-27T08:37:26.454Z,79.66
2024-03-27T08:38:26.444Z,79.97
2024-03-27T08:39:26.429Z,79.97
2024-03-27T08:40:26.443Z,79.87
2024-03-27T08:41:26.403Z,80.07
2024-03-27T08:42:26.402Z,80.38
2024-03-27T08:43:26.374Z,80.28
2024-03-27T08:44:26.369Z,79.97
2024-03-27T08:45:26.368Z,79.97
2024-03-27T08:46:26.405Z,80.07
2024-03-27T08:47:26.343Z,79.97
2024-03-27T08:48:26.356Z,80.18
2024-03-27T08:49:26.341Z,80.48
2024-03-27T08:50:26.323Z,80.18
2024-03-27T08:51:26.314Z,80.18
2024-03-27T08:52:26.317Z,80.07
2024-03-27T08:53:26.286Z,80.28
2024-03-27T08:54:26.276Z,80.48
2024-03-27T08:55:26.266Z,80.18
2024-03-27T08:56:26.247Z,79.87
2024-03-27T08:57:26.282Z,80.07
2024-03-27T08:58:26.228Z,80.38
2024-03-27T08:59:26.212Z,79.97
2024-03-27T09:00:26.210Z,79.46
2024-03-27T09:01:26.209Z,79.57
2024-03-27T09:02:26.182Z,79.87
2024-03-27T09:03:26.191Z,80.18
2024-03-27T09:04:26.163Z,80.18
2024-03-27T09:05:26.153Z,80.18
2024-03-27T09:06:26.163Z,80.48
2024-03-27T09:07:26.130Z,80.28
2024-03-27T09:08:26.123Z,80.28
2024-03-27T09:09:26.112Z,80.69
2024-03-27T09:10:26.093Z,80.79
2024-03-27T09:11:26.085Z,80.99
2024-03-27T09:12:26.065Z,81.13
2024-03-27T09:13:26.123Z,81.54
2024-03-27T09:14:26.071Z,81.65
2024-03-27T09:15:26.067Z,82.12
2024-03-27T09:16:26.041Z,82.42
2024-03-27T09:17:26.063Z,82.63
2024-03-27T09:18:26.014Z,82.56
2024-03-27T09:19:26.005Z,82.77
2024-03-27T09:20:26.008Z,82.87
2024-03-27T09:21:26.012Z,83.28
2024-03-27T09:22:25.966Z,82.97
2024-03-27T09:23:25.953Z,83.28
2024-03-27T09:24:25.971Z,83.07
2024-03-27T09:25:25.967Z,83.14
2024-03-27T09:26:25.934Z,83.24
2024-03-27T09:27:25.924Z,83.14
2024-03-27T09:28:25.909Z,83.34
2024-03-27T09:29:25.908Z,83.54
2024-03-27T09:30:25.896Z,83.44
2024-03-27T09:31:25.868Z,82.73
2024-03-27T09:32:25.860Z,82.46
2024-03-27T09:33:25.864Z,82.73
2024-03-27T09:34:25.871Z,82.53
2024-03-27T09:35:25.904Z,82.56
2024-03-27T09:36:25.827Z,82.56
2024-03-27T09:37:25.840Z,82.63
2024-03-27T09:38:25.794Z,82.53
2024-03-27T09:39:25.801Z,82.56
2024-03-27T09:40:25.763Z,82.87
2024-03-27T09:41:25.812Z,82.97
2024-03-27T09:42:25.751Z,82.87
2024-03-27T09:43:26.435Z,82.97
2024-03-27T09:44:25.717Z,82.97
2024-03-27T09:45:26.310Z,82.77
2024-03-27T09:46:25.737Z,82.67
2024-03-27T09:47:25.739Z,82.53
2024-03-27T09:48:25.704Z,82.53
2024-03-27T09:49:25.725Z,82.67
2024-03-27T09:50:25.676Z,82.15
2024-03-27T09:51:25.648Z,81.65
2024-03-27T09:52:25.640Z,81.44
2024-03-27T09:53:25.647Z,81.54
2024-03-27T09:54:25.625Z,81.51
2024-03-27T09:55:25.626Z,81.34
2024-03-27T09:56:25.587Z,81.54
2024-03-27T09:57:25.570Z,81.54
2024-03-27T09:58:25.583Z,81.85
2024-03-27T09:59:25.600Z,81.85
2024-03-27T10:00:25.541Z,81.65
2024-03-27T10:01:34.785Z,81.65
2024-03-27T10:02:25.527Z,81.95
2024-03-27T10:03:25.524Z,81.85
2024-03-27T10:04:25.519Z,81.95
2024-03-27T10:05:25.505Z,82.15
2024-03-27T10:06:25.484Z,82.15
2024-03-27T10:07:25.542Z,82.15
2024-03-27T10:08:25.480Z,82.26
2024-03-27T10:09:25.492Z,82.46
2024-03-27T10:10:25.441Z,82.87
2024-03-27T10:11:25.434Z,82.97
2024-03-27T10:12:25.444Z,82.87
2024-03-27T10:13:25.403Z,82.87
2024-03-27T10:14:25.391Z,82.87
2024-03-27T10:15:25.400Z,82.77
2024-03-27T10:16:25.373Z,82.67
2024-03-27T10:17:25.426Z,82.67
2024-03-27T10:18:25.367Z,82.67
2024-03-27T10:19:25.366Z,82.46
2024-03-27T10:20:25.322Z,82.36
2024-03-27T10:21:25.335Z,82.56
2024-03-27T10:22:25.310Z,82.67
2024-03-27T10:23:25.330Z,82.77
2024-03-27T10:24:25.316Z,82.87
2024-03-27T10:25:25.273Z,82.87
2024-03-27T10:26:25.281Z,82.87
2024-03-27T10:27:25.254Z,82.97
2024-03-27T10:28:25.242Z,83.18
2024-03-27T10:29:25.270Z,82.97
2024-03-27T10:30:25.282Z,82.87
2024-03-27T10:31:25.213Z,82.97
2024-03-27T10:32:25.218Z,82.77
2024-03-27T10:33:25.193Z,82.56
2024-03-27T10:34:25.223Z,82.36
2024-03-27T10:35:25.212Z,82.26
2024-03-27T10:36:30.210Z,81.85
2024-03-27T11:27:27.409Z,79.53
2024-03-27T11:28:28.368Z,79.43
2024-03-27T11:29:28.376Z,79.33
2024-03-27T11:30:29.303Z,79.43
2024-03-27T11:31:28.337Z,79.33
2024-03-27T11:32:28.368Z,79.74
2024-03-27T11:33:28.322Z,80.05
2024-03-27T11:34:28.307Z,80.15
2024-03-27T11:35:28.328Z,80.15
2024-03-27T11:36:28.289Z,80.25
2024-03-27T11:37:28.277Z,80.15
2024-03-27T11:38:28.262Z,80.35
2024-03-27T11:39:28.271Z,80.73
2024-03-27T11:40:28.284Z,80.73
2024-03-27T11:41:28.244Z,80.42
2024-03-27T11:42:28.227Z,80.52
2024-03-27T11:43:28.215Z,80.21
2024-03-27T11:44:28.238Z,80.32
2024-03-27T11:45:28.199Z,80.62
2024-03-27T11:46:28.216Z,81.13
2024-03-27T11:47:28.181Z,81.03
2024-03-27T11:48:29.056Z,80.52
2024-03-27T11:49:28.181Z,80.52
2024-03-27T11:50:28.159Z,80.32
2024-03-27T11:51:28.129Z,80.11
2024-03-27T11:52:28.118Z,79.80
2024-03-27T11:53:28.104Z,79.70
2024-03-27T11:54:28.106Z,79.70
2024-03-27T11:55:31.791Z,79.60
2024-03-27T11:56:28.082Z,79.19
2024-03-27T11:57:28.060Z,79.39
2024-03-27T11:58:28.055Z,79.39
2024-03-27T11:59:28.038Z,79.50
2024-03-27T12:00:28.047Z,79.50
2024-03-27T12:01:28.054Z,79.19
2024-03-27T12:02:28.020Z,79.29
2024-03-27T12:03:28.004Z,79.39
2024-03-27T12:04:27.991Z,79.50
2024-03-27T12:05:28.029Z,79.60
2024-03-27T12:06:27.966Z,79.50
2024-03-27T12:07:27.954Z,79.80
2024-03-27T12:08:27.955Z,80.21
2024-03-27T12:09:27.950Z,80.11
2024-03-27T12:10:27.921Z,80.32
2024-03-27T12:11:27.960Z,80.21
2024-03-27T12:12:27.921Z,80.32
2024-03-27T12:13:27.905Z,80.42
2024-03-27T12:14:27.886Z,80.62
2024-03-27T12:15:27.882Z,80.32
2024-03-27T12:16:27.875Z,80.28
2024-03-27T12:17:27.916Z,80.18
2024-03-27T12:18:27.913Z,79.77
2024-03-27T12:19:27.846Z,79.80
2024-03-27T12:20:30.556Z,79.19
2024-03-27T12:21:27.821Z,79.39
2024-03-27T12:22:27.799Z,79.97
2024-03-27T12:23:27.830Z,80.07
2024-03-27T12:24:27.807Z,80.48
2024-03-27T12:25:27.776Z,80.69
2024-03-27T12:26:27.773Z,80.58
2024-03-27T12:27:27.742Z,80.38
2024-03-27T12:28:27.747Z,80.69
2024-03-27T12:29:27.755Z,80.38
2024-03-27T12:30:27.728Z,79.97
2024-03-27T12:31:27.714Z,80.18
2024-03-27T12:32:27.730Z,79.97
2024-03-27T12:33:27.728Z,80.07
2024-03-27T12:34:27.725Z,79.87
2024-03-27T12:35:27.684Z,79.97
2024-03-27T12:36:27.665Z,80.28
2024-03-27T12:37:27.670Z,80.14
2024-03-27T12:38:27.652Z,80.14
2024-03-27T12:39:27.687Z,80.04
2024-03-27T12:40:27.620Z,80.04
2024-03-27T12:41:27.605Z,80.14
2024-03-27T12:42:27.613Z,80.24
2024-03-27T12:43:27.592Z,80.34
2024-03-27T12:44:27.610Z,80.24
2024-03-27T12:45:27.563Z,79.93
2024-03-27T12:46:27.561Z,79.32
2024-03-27T12:47:27.555Z,78.41
2024-03-27T12:48:27.524Z,78.20
2024-03-27T12:49:27.562Z,78.16
2024-03-27T12:50:27.525Z,78.27
2024-03-27T12:51:27.557Z,78.37
2024-03-27T12:52:27.495Z,78.47
2024-03-27T12:53:27.484Z,78.98
2024-03-27T12:54:27.490Z,79.08
2024-03-27T12:55:27.463Z,78.37
2024-03-27T12:56:27.478Z,77.55
2024-03-27T12:57:27.479Z,77.65
2024-03-27T12:58:27.421Z,77.55
2024-03-27T12:59:27.418Z,77.65
2024-03-27T13:00:27.479Z,77.25
2024-03-27T13:01:27.434Z,76.63
2024-03-27T13:02:27.397Z,76.53
2024-03-27T13:03:27.403Z,76.43
2024-03-27T13:04:27.367Z,76.50
2024-03-27T13:05:27.369Z,76.39
2024-03-27T13:06:27.357Z,75.88
2024-03-27T13:07:27.349Z,75.48
2024-03-27T13:08:27.333Z,75.57
2024-03-27T13:09:27.316Z,75.78
2024-03-27T13:10:27.297Z,75.68
2024-03-27T13:11:27.290Z,75.37
2024-03-27T13:12:27.314Z,75.57
2024-03-27T13:13:27.313Z,75.57
2024-03-27T13:14:27.276Z,75.78
2024-03-27T13:15:27.257Z,75.27
2024-03-27T13:16:27.224Z,75.57
2024-03-27T13:17:27.232Z,75.98
2024-03-27T13:18:27.274Z,76.19
2024-03-27T13:19:27.202Z,76.50
2024-03-27T13:20:27.200Z,75.88
2024-03-27T13:21:27.243Z,75.16
2024-03-27T13:22:27.181Z,75.16
2024-03-27T13:23:27.193Z,75.16
2024-03-27T13:24:27.174Z,75.16
2024-03-27T13:25:27.188Z,75.16
2024-03-27T13:26:27.124Z,75.48
2024-03-27T13:27:27.112Z,75.16
2024-03-27T13:28:27.112Z,74.66
2024-03-27T13:29:27.146Z,74.76
2024-03-27T13:30:27.091Z,74.45
2024-03-27T13:31:27.080Z,74.45
2024-03-27T13:32:27.090Z,74.49
2024-03-27T13:33:27.058Z,75.00
2024-03-27T13:34:27.040Z,75.20
2024-03-27T13:35:27.049Z,75.20
2024-03-27T13:36:27.026Z,75.41
2024-03-27T13:37:29.379Z,75.51
2024-03-27T13:38:26.999Z,75.10
2024-03-27T13:39:27.001Z,74.69
2024-03-27T13:40:26.981Z,74.69
2024-03-27T13:41:27.030Z,74.29
2024-03-27T13:42:26.966Z,74.08